sensor_id;sensor_type;location;lat;lon;timestamp;P1;durP1;ratioP1;P2;durP2;ratioP2
80131;SDS011;69442;51.442;10.564;2024-03-08T00:00:19;28.52;;;12.73;;
80131;SDS011;69442;51.442;10.564;2024-03-08T00:02:47;28.55;;;13.27;;
80131;SDS011;69442;51.442;10.564;2024-03-08T00:05:13;28.52;;;13.15;;
80131;SDS011;69442;51.442;10.564;2024-03-08T00:07:39;11.60;;;6.50;;
80131;SDS011;69442;51.442;10.564;2024-03-08T00:10:06;10.07;;;5.82;;
80131;SDS011;69442;51.442;10.564;2024-03-08T00:12:36;18.23;;;9.65;;
80131;SDS011;69442;51.442;10.564;2024-03-08T00:15:03;17.48;;;8.43;;
80131;SDS011;69442;51.442;10.564;2024-03-08T00:17:29;12.25;;;6.38;;
80131;SDS011;69442;51.442;10.564;2024-03-08T00:19:54;25.77;;;12.65;;
80131;SDS011;69442;51.442;10.564;2024-03-08T00:22:19;25.65;;;11.55;;
80131;SDS011;69442;51.442;10.564;2024-03-08T00:24:45;11.27;;;5.43;;
80131;SDS011;69442;51.442;10.564;2024-03-08T00:27:10;11.63;;;7.30;;
80131;SDS011;69442;51.442;10.564;2024-03-08T00:29:36;26.52;;;11.93;;
80131;SDS011;69442;51.442;10.564;2024-03-08T00:32:03;24.27;;;12.25;;
80131;SDS011;69442;51.442;10.564;2024-03-08T00:34:29;21.80;;;9.80;;
80131;SDS011;69442;51.442;10.564;2024-03-08T00:36:54;26.58;;;11.88;;
80131;SDS011;69442;51.442;10.564;2024-03-08T00:39:20;22.83;;;11.40;;
80131;SDS011;69442;51.442;10.564;2024-03-08T00:41:46;24.98;;;12.77;;
80131;SDS011;69442;51.442;10.564;2024-03-08T00:44:12;23.63;;;11.65;;
80131;SDS011;69442;51.442;10.564;2024-03-08T00:46:37;17.13;;;7.20;;
80131;SDS011;69442;51.442;10.564;2024-03-08T00:49:03;10.93;;;5.65;;
80131;SDS011;69442;51.442;10.564;2024-03-08T00:51:28;13.80;;;6.47;;
80131;SDS011;69442;51.442;10.564;2024-03-08T00:53:54;9.05;;;5.30;;
80131;SDS011;69442;51.442;10.564;2024-03-08T00:56:19;14.50;;;7.38;;
80131;SDS011;69442;51.442;10.564;2024-03-08T00:58:45;11.82;;;5.40;;
80131;SDS011;69442;51.442;10.564;2024-03-08T01:01:10;20.80;;;11.05;;
80131;SDS011;69442;51.442;10.564;2024-03-08T01:03:37;16.67;;;8.27;;
80131;SDS011;69442;51.442;10.564;2024-03-08T01:06:03;11.60;;;5.47;;
80131;SDS011;69442;51.442;10.564;2024-03-08T01:08:29;22.17;;;11.63;;
80131;SDS011;69442;51.442;10.564;2024-03-08T01:10:54;26.13;;;12.43;;
80131;SDS011;69442;51.442;10.564;2024-03-08T01:13:20;14.48;;;7.65;;
80131;SDS011;69442;51.442;10.564;2024-03-08T01:15:46;19.38;;;10.20;;
80131;SDS011;69442;51.442;10.564;2024-03-08T01:18:11;26.02;;;12.18;;
80131;SDS011;69442;51.442;10.564;2024-03-08T01:20:37;13.43;;;7.05;;
80131;SDS011;69442;51.442;10.564;2024-03-08T01:23:02;25.88;;;12.27;;
80131;SDS011;69442;51.442;10.564;2024-03-08T01:25:30;19.05;;;7.72;;
80131;SDS011;69442;51.442;10.564;2024-03-08T01:27:57;15.35;;;7.75;;
80131;SDS011;69442;51.442;10.564;2024-03-08T01:30:22;12.35;;;6.53;;
80131;SDS011;69442;51.442;10.564;2024-03-08T01:32:48;11.75;;;5.55;;
80131;SDS011;69442;51.442;10.564;2024-03-08T01:35:13;14.38;;;7.88;;
80131;SDS011;69442;51.442;10.564;2024-03-08T01:37:39;28.67;;;13.80;;
80131;SDS011;69442;51.442;10.564;2024-03-08T01:40:04;27.77;;;12.30;;
80131;SDS011;69442;51.442;10.564;2024-03-08T01:42:30;26.50;;;12.65;;
80131;SDS011;69442;51.442;10.564;2024-03-08T01:44:55;23.02;;;11.43;;
80131;SDS011;69442;51.442;10.564;2024-03-08T01:47:21;25.20;;;12.55;;
80131;SDS011;69442;51.442;10.564;2024-03-08T01:49:50;28.58;;;12.18;;
80131;SDS011;69442;51.442;10.564;2024-03-08T01:52:16;29.38;;;13.55;;
80131;SDS011;69442;51.442;10.564;2024-03-08T01:54:44;17.80;;;9.80;;
80131;SDS011;69442;51.442;10.564;2024-03-08T01:57:10;13.20;;;6.88;;
80131;SDS011;69442;51.442;10.564;2024-03-08T01:59:36;26.42;;;11.55;;
80131;SDS011;69442;51.442;10.564;2024-03-08T02:02:01;15.88;;;6.47;;
80131;SDS011;69442;51.442;10.564;2024-03-08T02:04:31;23.10;;;10.93;;
80131;SDS011;69442;51.442;10.564;2024-03-08T02:06:56;21.27;;;7.78;;
80131;SDS011;69442;51.442;10.564;2024-03-08T02:09:23;26.75;;;11.95;;
80131;SDS011;69442;51.442;10.564;2024-03-08T02:11:50;16.55;;;8.32;;
80131;SDS011;69442;51.442;10.564;2024-03-08T02:14:16;30.23;;;14.48;;
80131;SDS011;69442;51.442;10.564;2024-03-08T02:16:43;30.17;;;13.65;;
80131;SDS011;69442;51.442;10.564;2024-03-08T02:19:09;31.75;;;13.27;;
80131;SDS011;69442;51.442;10.564;2024-03-08T02:21:34;13.88;;;7.25;;
80131;SDS011;69442;51.442;10.564;2024-03-08T02:24:01;34.40;;;15.50;;
80131;SDS011;69442;51.442;10.564;2024-03-08T02:26:26;32.30;;;15.32;;
80131;SDS011;69442;51.442;10.564;2024-03-08T02:28:52;15.63;;;8.13;;
80131;SDS011;69442;51.442;10.564;2024-03-08T02:31:17;23.35;;;10.93;;
80131;SDS011;69442;51.442;10.564;2024-03-08T02:33:43;29.52;;;13.45;;
80131;SDS011;69442;51.442;10.564;2024-03-08T02:36:08;26.88;;;13.20;;
80131;SDS011;69442;51.442;10.564;2024-03-08T02:38:33;42.03;;;19.75;;
80131;SDS011;69442;51.442;10.564;2024-03-08T02:40:59;32.58;;;13.88;;
80131;SDS011;69442;51.442;10.564;2024-03-08T02:43:24;28.20;;;13.32;;
80131;SDS011;69442;51.442;10.564;2024-03-08T02:45:50;21.85;;;11.05;;
80131;SDS011;69442;51.442;10.564;2024-03-08T02:48:15;31.48;;;14.70;;
80131;SDS011;69442;51.442;10.564;2024-03-08T02:50:43;29.58;;;12.70;;
80131;SDS011;69442;51.442;10.564;2024-03-08T02:53:09;32.10;;;14.82;;
80131;SDS011;69442;51.442;10.564;2024-03-08T02:55:36;27.13;;;11.60;;
80131;SDS011;69442;51.442;10.564;2024-03-08T02:58:05;21.38;;;9.70;;
80131;SDS011;69442;51.442;10.564;2024-03-08T03:00:34;29.77;;;12.93;;
80131;SDS011;69442;51.442;10.564;2024-03-08T03:03:00;21.95;;;11.23;;
80131;SDS011;69442;51.442;10.564;2024-03-08T03:05:27;31.30;;;13.32;;
80131;SDS011;69442;51.442;10.564;2024-03-08T03:07:54;27.30;;;14.43;;
80131;SDS011;69442;51.442;10.564;2024-03-08T03:10:20;32.05;;;14.20;;
80131;SDS011;69442;51.442;10.564;2024-03-08T03:12:46;30.83;;;12.27;;
80131;SDS011;69442;51.442;10.564;2024-03-08T03:15:13;16.98;;;7.78;;
80131;SDS011;69442;51.442;10.564;2024-03-08T03:17:39;29.73;;;13.20;;
80131;SDS011;69442;51.442;10.564;2024-03-08T03:20:08;32.85;;;14.48;;
80131;SDS011;69442;51.442;10.564;2024-03-08T03:22:39;28.92;;;13.07;;
80131;SDS011;69442;51.442;10.564;2024-03-08T03:25:06;30.67;;;14.75;;
80131;SDS011;69442;51.442;10.564;2024-03-08T03:27:32;29.85;;;13.30;;
80131;SDS011;69442;51.442;10.564;2024-03-08T03:29:58;16.85;;;8.35;;
80131;SDS011;69442;51.442;10.564;2024-03-08T03:32:23;30.48;;;13.85;;
80131;SDS011;69442;51.442;10.564;2024-03-08T03:34:49;20.95;;;9.35;;
80131;SDS011;69442;51.442;10.564;2024-03-08T03:37:18;18.80;;;9.30;;
80131;SDS011;69442;51.442;10.564;2024-03-08T03:39:46;23.77;;;12.10;;
80131;SDS011;69442;51.442;10.564;2024-03-08T03:42:15;22.60;;;10.80;;
80131;SDS011;69442;51.442;10.564;2024-03-08T03:44:41;35.80;;;15.50;;
80131;SDS011;69442;51.442;10.564;2024-03-08T03:47:09;22.52;;;10.05;;
80131;SDS011;69442;51.442;10.564;2024-03-08T03:49:34;34.50;;;15.35;;
80131;SDS011;69442;51.442;10.564;2024-03-08T03:51:59;31.52;;;14.25;;
80131;SDS011;69442;51.442;10.564;2024-03-08T03:54:25;34.00;;;14.02;;
80131;SDS011;69442;51.442;10.564;2024-03-08T03:56:50;13.40;;;6.95;;
80131;SDS011;69442;51.442;10.564;2024-03-08T03:59:18;9.80;;;5.55;;
80131;SDS011;69442;51.442;10.564;2024-03-08T04:01:44;29.27;;;12.63;;
80131;SDS011;69442;51.442;10.564;2024-03-08T04:04:09;14.50;;;7.22;;
80131;SDS011;69442;51.442;10.564;2024-03-08T04:06:35;31.05;;;13.82;;
80131;SDS011;69442;51.442;10.564;2024-03-08T04:09:00;34.10;;;14.98;;
80131;SDS011;69442;51.442;10.564;2024-03-08T04:11:25;37.47;;;14.10;;
80131;SDS011;69442;51.442;10.564;2024-03-08T04:13:50;31.92;;;12.73;;
80131;SDS011;69442;51.442;10.564;2024-03-08T04:16:17;19.98;;;8.82;;
80131;SDS011;69442;51.442;10.564;2024-03-08T04:18:44;23.98;;;12.18;;
80131;SDS011;69442;51.442;10.564;2024-03-08T04:21:09;37.78;;;15.20;;
80131;SDS011;69442;51.442;10.564;2024-03-08T04:23:34;28.05;;;12.48;;
80131;SDS011;69442;51.442;10.564;2024-03-08T04:26:01;26.48;;;12.80;;
80131;SDS011;69442;51.442;10.564;2024-03-08T04:28:31;42.72;;;16.55;;
80131;SDS011;69442;51.442;10.564;2024-03-08T04:30:56;17.05;;;7.93;;
80131;SDS011;69442;51.442;10.564;2024-03-08T04:33:22;35.42;;;15.07;;
80131;SDS011;69442;51.442;10.564;2024-03-08T04:35:48;25.58;;;12.27;;
80131;SDS011;69442;51.442;10.564;2024-03-08T04:38:14;23.48;;;10.73;;
80131;SDS011;69442;51.442;10.564;2024-03-08T04:40:40;25.50;;;11.30;;
80131;SDS011;69442;51.442;10.564;2024-03-08T04:43:05;36.95;;;13.88;;
80131;SDS011;69442;51.442;10.564;2024-03-08T04:45:33;18.60;;;9.55;;
80131;SDS011;69442;51.442;10.564;2024-03-08T04:47:58;34.28;;;15.10;;
80131;SDS011;69442;51.442;10.564;2024-03-08T04:50:24;32.17;;;13.05;;
80131;SDS011;69442;51.442;10.564;2024-03-08T04:52:49;31.10;;;14.63;;
80131;SDS011;69442;51.442;10.564;2024-03-08T04:55:14;25.17;;;11.23;;
80131;SDS011;69442;51.442;10.564;2024-03-08T04:57:40;34.97;;;14.88;;
80131;SDS011;69442;51.442;10.564;2024-03-08T05:00:07;28.55;;;12.85;;
80131;SDS011;69442;51.442;10.564;2024-03-08T05:02:36;27.20;;;11.32;;
80131;SDS011;69442;51.442;10.564;2024-03-08T05:05:04;35.60;;;14.18;;
80131;SDS011;69442;51.442;10.564;2024-03-08T05:07:31;40.20;;;16.92;;
80131;SDS011;69442;51.442;10.564;2024-03-08T05:09:57;30.30;;;12.85;;
80131;SDS011;69442;51.442;10.564;2024-03-08T05:12:23;11.55;;;5.97;;
80131;SDS011;69442;51.442;10.564;2024-03-08T05:14:48;27.48;;;13.02;;
80131;SDS011;69442;51.442;10.564;2024-03-08T05:17:15;10.15;;;5.07;;
80131;SDS011;69442;51.442;10.564;2024-03-08T05:19:41;23.60;;;11.38;;
80131;SDS011;69442;51.442;10.564;2024-03-08T05:22:06;30.35;;;13.82;;
80131;SDS011;69442;51.442;10.564;2024-03-08T05:24:32;26.05;;;11.27;;
80131;SDS011;69442;51.442;10.564;2024-03-08T05:26:58;11.65;;;6.13;;
80131;SDS011;69442;51.442;10.564;2024-03-08T05:29:25;26.27;;;10.25;;
80131;SDS011;69442;51.442;10.564;2024-03-08T05:31:51;33.03;;;13.98;;
80131;SDS011;69442;51.442;10.564;2024-03-08T05:34:20;20.08;;;10.43;;
80131;SDS011;69442;51.442;10.564;2024-03-08T05:36:46;30.30;;;12.82;;
80131;SDS011;69442;51.442;10.564;2024-03-08T05:39:14;7.93;;;4.90;;
80131;SDS011;69442;51.442;10.564;2024-03-08T05:41:40;30.50;;;12.68;;
80131;SDS011;69442;51.442;10.564;2024-03-08T05:44:06;31.70;;;14.63;;
80131;SDS011;69442;51.442;10.564;2024-03-08T05:46:32;14.90;;;7.28;;
80131;SDS011;69442;51.442;10.564;2024-03-08T05:48:58;29.08;;;13.20;;
80131;SDS011;69442;51.442;10.564;2024-03-08T05:51:30;28.70;;;13.07;;
80131;SDS011;69442;51.442;10.564;2024-03-08T05:53:56;33.25;;;14.50;;
80131;SDS011;69442;51.442;10.564;2024-03-08T05:56:21;31.70;;;13.70;;
80131;SDS011;69442;51.442;10.564;2024-03-08T05:58:48;28.58;;;14.48;;
80131;SDS011;69442;51.442;10.564;2024-03-08T06:01:15;35.70;;;16.25;;
80131;SDS011;69442;51.442;10.564;2024-03-08T06:03:41;29.70;;;13.95;;
80131;SDS011;69442;51.442;10.564;2024-03-08T06:06:11;43.65;;;15.27;;
80131;SDS011;69442;51.442;10.564;2024-03-08T06:08:37;32.30;;;14.68;;
80131;SDS011;69442;51.442;10.564;2024-03-08T06:11:03;27.38;;;13.35;;
80131;SDS011;69442;51.442;10.564;2024-03-08T06:13:29;28.63;;;13.63;;
80131;SDS011;69442;51.442;10.564;2024-03-08T06:15:56;32.13;;;13.30;;
80131;SDS011;69442;51.442;10.564;2024-03-08T06:18:21;18.60;;;9.18;;
80131;SDS011;69442;51.442;10.564;2024-03-08T06:20:47;14.35;;;7.80;;
80131;SDS011;69442;51.442;10.564;2024-03-08T06:23:12;33.28;;;15.40;;
80131;SDS011;69442;51.442;10.564;2024-03-08T06:25:42;14.13;;;7.15;;
80131;SDS011;69442;51.442;10.564;2024-03-08T06:28:08;29.23;;;14.35;;
80131;SDS011;69442;51.442;10.564;2024-03-08T06:30:33;33.55;;;16.48;;
80131;SDS011;69442;51.442;10.564;2024-03-08T06:32:59;32.55;;;12.52;;
80131;SDS011;69442;51.442;10.564;2024-03-08T06:35:25;34.53;;;13.30;;
80131;SDS011;69442;51.442;10.564;2024-03-08T06:37:50;36.88;;;14.88;;
80131;SDS011;69442;51.442;10.564;2024-03-08T06:40:16;39.60;;;15.45;;
80131;SDS011;69442;51.442;10.564;2024-03-08T06:42:41;33.47;;;15.75;;
80131;SDS011;69442;51.442;10.564;2024-03-08T06:45:07;36.40;;;15.75;;
80131;SDS011;69442;51.442;10.564;2024-03-08T06:47:35;36.05;;;14.85;;
80131;SDS011;69442;51.442;10.564;2024-03-08T06:50:00;37.92;;;16.40;;
80131;SDS011;69442;51.442;10.564;2024-03-08T06:52:25;38.92;;;16.40;;
80131;SDS011;69442;51.442;10.564;2024-03-08T06:54:51;39.95;;;17.92;;
80131;SDS011;69442;51.442;10.564;2024-03-08T06:57:17;35.45;;;16.67;;
80131;SDS011;69442;51.442;10.564;2024-03-08T06:59:43;40.83;;;17.83;;
80131;SDS011;69442;51.442;10.564;2024-03-08T07:02:08;36.13;;;15.00;;
80131;SDS011;69442;51.442;10.564;2024-03-08T07:04:34;37.90;;;15.95;;
80131;SDS011;69442;51.442;10.564;2024-03-08T07:07:03;39.33;;;16.75;;
80131;SDS011;69442;51.442;10.564;2024-03-08T07:09:29;39.28;;;18.92;;
80131;SDS011;69442;51.442;10.564;2024-03-08T07:11:54;35.75;;;15.98;;
80131;SDS011;69442;51.442;10.564;2024-03-08T07:14:23;39.20;;;17.08;;
80131;SDS011;69442;51.442;10.564;2024-03-08T07:16:49;47.67;;;18.83;;
80131;SDS011;69442;51.442;10.564;2024-03-08T07:19:15;33.60;;;16.15;;
80131;SDS011;69442;51.442;10.564;2024-03-08T07:21:42;39.72;;;18.48;;
80131;SDS011;69442;51.442;10.564;2024-03-08T07:24:10;30.25;;;12.68;;
80131;SDS011;69442;51.442;10.564;2024-03-08T07:26:42;42.10;;;21.02;;
80131;SDS011;69442;51.442;10.564;2024-03-08T07:29:08;45.13;;;19.52;;
80131;SDS011;69442;51.442;10.564;2024-03-08T07:31:34;46.28;;;21.02;;
80131;SDS011;69442;51.442;10.564;2024-03-08T07:34:02;45.53;;;19.77;;
80131;SDS011;69442;51.442;10.564;2024-03-08T07:36:28;48.70;;;20.25;;
80131;SDS011;69442;51.442;10.564;2024-03-08T07:38:53;44.33;;;20.00;;
80131;SDS011;69442;51.442;10.564;2024-03-08T07:41:19;41.47;;;17.90;;
80131;SDS011;69442;51.442;10.564;2024-03-08T07:43:45;38.25;;;17.52;;
80131;SDS011;69442;51.442;10.564;2024-03-08T07:46:10;43.03;;;17.75;;
80131;SDS011;69442;51.442;10.564;2024-03-08T07:48:36;44.50;;;20.58;;
80131;SDS011;69442;51.442;10.564;2024-03-08T07:51:01;48.65;;;21.15;;
80131;SDS011;69442;51.442;10.564;2024-03-08T07:53:28;42.97;;;18.52;;
80131;SDS011;69442;51.442;10.564;2024-03-08T07:55:53;43.78;;;18.80;;
80131;SDS011;69442;51.442;10.564;2024-03-08T07:58:19;44.28;;;18.38;;
80131;SDS011;69442;51.442;10.564;2024-03-08T08:00:44;47.28;;;23.92;;
80131;SDS011;69442;51.442;10.564;2024-03-08T08:03:10;44.05;;;21.42;;
80131;SDS011;69442;51.442;10.564;2024-03-08T08:05:35;48.53;;;26.27;;
80131;SDS011;69442;51.442;10.564;2024-03-08T08:08:02;45.03;;;21.70;;
80131;SDS011;69442;51.442;10.564;2024-03-08T08:10:31;45.78;;;21.50;;
80131;SDS011;69442;51.442;10.564;2024-03-08T08:12:57;42.00;;;21.25;;
80131;SDS011;69442;51.442;10.564;2024-03-08T08:15:23;44.85;;;20.55;;
80131;SDS011;69442;51.442;10.564;2024-03-08T08:17:48;44.13;;;19.50;;
80131;SDS011;69442;51.442;10.564;2024-03-08T08:20:14;49.33;;;20.92;;
80131;SDS011;69442;51.442;10.564;2024-03-08T08:22:40;44.03;;;22.75;;
80131;SDS011;69442;51.442;10.564;2024-03-08T08:25:06;46.78;;;23.35;;
80131;SDS011;69442;51.442;10.564;2024-03-08T08:27:32;46.30;;;20.83;;
80131;SDS011;69442;51.442;10.564;2024-03-08T08:29:58;43.95;;;20.42;;
80131;SDS011;69442;51.442;10.564;2024-03-08T08:32:23;40.63;;;20.45;;
80131;SDS011;69442;51.442;10.564;2024-03-08T08:34:49;41.33;;;17.65;;
80131;SDS011;69442;51.442;10.564;2024-03-08T08:37:14;45.33;;;21.70;;
80131;SDS011;69442;51.442;10.564;2024-03-08T08:39:41;37.92;;;17.60;;
80131;SDS011;69442;51.442;10.564;2024-03-08T08:42:06;41.10;;;17.77;;
80131;SDS011;69442;51.442;10.564;2024-03-08T08:44:34;41.20;;;21.88;;
80131;SDS011;69442;51.442;10.564;2024-03-08T08:47:00;44.67;;;21.75;;
80131;SDS011;69442;51.442;10.564;2024-03-08T08:49:25;34.00;;;15.75;;
80131;SDS011;69442;51.442;10.564;2024-03-08T08:51:51;42.90;;;19.48;;
80131;SDS011;69442;51.442;10.564;2024-03-08T08:54:17;43.38;;;21.90;;
80131;SDS011;69442;51.442;10.564;2024-03-08T08:56:42;43.47;;;20.25;;
80131;SDS011;69442;51.442;10.564;2024-03-08T08:59:12;46.60;;;22.70;;
80131;SDS011;69442;51.442;10.564;2024-03-08T09:01:44;38.65;;;18.83;;
80131;SDS011;69442;51.442;10.564;2024-03-08T09:04:12;42.70;;;21.52;;
80131;SDS011;69442;51.442;10.564;2024-03-08T09:06:37;47.65;;;26.58;;
80131;SDS011;69442;51.442;10.564;2024-03-08T09:09:03;44.55;;;21.27;;
80131;SDS011;69442;51.442;10.564;2024-03-08T09:11:30;41.95;;;20.05;;
80131;SDS011;69442;51.442;10.564;2024-03-08T09:13:55;41.75;;;20.38;;
80131;SDS011;69442;51.442;10.564;2024-03-08T09:16:20;45.15;;;23.10;;
80131;SDS011;69442;51.442;10.564;2024-03-08T09:18:46;45.25;;;21.02;;
80131;SDS011;69442;51.442;10.564;2024-03-08T09:21:13;37.45;;;18.33;;
80131;SDS011;69442;51.442;10.564;2024-03-08T09:23:38;43.97;;;20.85;;
80131;SDS011;69442;51.442;10.564;2024-03-08T09:26:05;45.28;;;21.08;;
80131;SDS011;69442;51.442;10.564;2024-03-08T09:28:34;42.00;;;18.90;;
80131;SDS011;69442;51.442;10.564;2024-03-08T09:30:59;39.42;;;18.73;;
80131;SDS011;69442;51.442;10.564;2024-03-08T09:33:26;39.40;;;18.63;;
80131;SDS011;69442;51.442;10.564;2024-03-08T09:35:53;37.33;;;17.73;;
80131;SDS011;69442;51.442;10.564;2024-03-08T09:38:19;40.40;;;19.52;;
80131;SDS011;69442;51.442;10.564;2024-03-08T09:40:45;43.00;;;21.90;;
80131;SDS011;69442;51.442;10.564;2024-03-08T09:43:11;40.50;;;19.75;;
80131;SDS011;69442;51.442;10.564;2024-03-08T09:45:39;30.90;;;15.13;;
80131;SDS011;69442;51.442;10.564;2024-03-08T09:48:09;43.88;;;22.17;;
80131;SDS011;69442;51.442;10.564;2024-03-08T09:50:37;34.17;;;17.02;;
80131;SDS011;69442;51.442;10.564;2024-03-08T09:53:03;44.20;;;20.15;;
80131;SDS011;69442;51.442;10.564;2024-03-08T09:55:29;37.30;;;19.35;;
80131;SDS011;69442;51.442;10.564;2024-03-08T09:57:59;38.50;;;17.87;;
80131;SDS011;69442;51.442;10.564;2024-03-08T10:00:46;43.05;;;21.33;;
80131;SDS011;69442;51.442;10.564;2024-03-08T10:03:11;41.00;;;19.75;;
80131;SDS011;69442;51.442;10.564;2024-03-08T10:05:39;39.60;;;18.00;;
80131;SDS011;69442;51.442;10.564;2024-03-08T10:08:04;38.72;;;21.52;;
80131;SDS011;69442;51.442;10.564;2024-03-08T10:10:33;41.08;;;25.25;;
80131;SDS011;69442;51.442;10.564;2024-03-08T10:12:59;36.75;;;18.58;;
80131;SDS011;69442;51.442;10.564;2024-03-08T10:15:26;39.05;;;18.52;;
80131;SDS011;69442;51.442;10.564;2024-03-08T10:17:55;44.70;;;23.30;;
80131;SDS011;69442;51.442;10.564;2024-03-08T10:20:21;31.80;;;16.45;;
80131;SDS011;69442;51.442;10.564;2024-03-08T10:22:46;37.53;;;22.27;;
80131;SDS011;69442;51.442;10.564;2024-03-08T10:25:12;40.17;;;19.85;;
80131;SDS011;69442;51.442;10.564;2024-03-08T10:27:38;38.75;;;19.77;;
80131;SDS011;69442;51.442;10.564;2024-03-08T10:30:06;40.85;;;19.67;;
80131;SDS011;69442;51.442;10.564;2024-03-08T10:32:35;35.20;;;18.55;;
80131;SDS011;69442;51.442;10.564;2024-03-08T10:35:00;40.67;;;20.20;;
80131;SDS011;69442;51.442;10.564;2024-03-08T10:37:26;34.95;;;18.58;;
80131;SDS011;69442;51.442;10.564;2024-03-08T10:40:01;38.00;;;20.67;;
80131;SDS011;69442;51.442;10.564;2024-03-08T10:42:40;33.92;;;15.13;;
80131;SDS011;69442;51.442;10.564;2024-03-08T10:45:38;42.58;;;22.10;;
80131;SDS011;69442;51.442;10.564;2024-03-08T10:50:56;38.10;;;16.90;;
80131;SDS011;69442;51.442;10.564;2024-03-08T10:53:22;35.63;;;17.13;;
80131;SDS011;69442;51.442;10.564;2024-03-08T10:55:49;36.92;;;18.60;;
80131;SDS011;69442;51.442;10.564;2024-03-08T10:58:18;38.17;;;17.83;;
80131;SDS011;69442;51.442;10.564;2024-03-08T11:00:46;34.75;;;17.60;;
80131;SDS011;69442;51.442;10.564;2024-03-08T11:06:05;37.70;;;18.48;;
80131;SDS011;69442;51.442;10.564;2024-03-08T11:08:35;36.97;;;23.52;;
80131;SDS011;69442;51.442;10.564;2024-03-08T11:11:01;31.15;;;16.42;;
80131;SDS011;69442;51.442;10.564;2024-03-08T11:13:34;38.25;;;21.20;;
80131;SDS011;69442;51.442;10.564;2024-03-08T11:16:00;37.67;;;22.10;;
80131;SDS011;69442;51.442;10.564;2024-03-08T11:18:26;35.38;;;18.58;;
80131;SDS011;69442;51.442;10.564;2024-03-08T11:20:55;36.30;;;17.77;;
80131;SDS011;69442;51.442;10.564;2024-03-08T11:23:23;33.05;;;16.77;;
80131;SDS011;69442;51.442;10.564;2024-03-08T11:25:50;33.13;;;19.00;;
80131;SDS011;69442;51.442;10.564;2024-03-08T11:28:21;37.00;;;19.77;;
80131;SDS011;69442;51.442;10.564;2024-03-08T11:33:27;36.38;;;16.70;;
80131;SDS011;69442;51.442;10.564;2024-03-08T11:36:19;32.90;;;15.65;;
80131;SDS011;69442;51.442;10.564;2024-03-08T11:38:47;32.55;;;15.30;;
80131;SDS011;69442;51.442;10.564;2024-03-08T11:41:14;34.92;;;17.48;;
80131;SDS011;69442;51.442;10.564;2024-03-08T11:43:44;31.88;;;20.38;;
80131;SDS011;69442;51.442;10.564;2024-03-08T11:46:11;33.10;;;17.73;;
80131;SDS011;69442;51.442;10.564;2024-03-08T11:48:38;32.55;;;17.00;;
80131;SDS011;69442;51.442;10.564;2024-03-08T11:51:06;38.45;;;21.55;;
80131;SDS011;69442;51.442;10.564;2024-03-08T11:53:32;36.85;;;24.85;;
80131;SDS011;69442;51.442;10.564;2024-03-08T11:56:11;30.27;;;15.75;;
80131;SDS011;69442;51.442;10.564;2024-03-08T11:58:37;32.50;;;16.50;;
80131;SDS011;69442;51.442;10.564;2024-03-08T12:01:06;26.40;;;15.45;;
80131;SDS011;69442;51.442;10.564;2024-03-08T12:03:37;34.65;;;15.98;;
80131;SDS011;69442;51.442;10.564;2024-03-08T12:06:03;30.90;;;15.73;;
80131;SDS011;69442;51.442;10.564;2024-03-08T12:08:31;37.45;;;20.17;;
80131;SDS011;69442;51.442;10.564;2024-03-08T12:10:57;31.67;;;18.35;;
80131;SDS011;69442;51.442;10.564;2024-03-08T12:13:33;35.20;;;17.08;;
80131;SDS011;69442;51.442;10.564;2024-03-08T12:16:02;20.88;;;11.80;;
80131;SDS011;69442;51.442;10.564;2024-03-08T12:18:37;30.00;;;15.90;;
80131;SDS011;69442;51.442;10.564;2024-03-08T12:21:10;29.73;;;14.05;;
80131;SDS011;69442;51.442;10.564;2024-03-08T12:23:37;29.20;;;14.00;;
80131;SDS011;69442;51.442;10.564;2024-03-08T12:26:16;30.58;;;15.93;;
80131;SDS011;69442;51.442;10.564;2024-03-08T12:28:43;23.55;;;12.77;;
80131;SDS011;69442;51.442;10.564;2024-03-08T12:31:13;29.20;;;14.98;;
80131;SDS011;69442;51.442;10.564;2024-03-08T12:33:54;33.78;;;19.33;;
80131;SDS011;69442;51.442;10.564;2024-03-08T12:36:24;31.60;;;16.83;;
80131;SDS011;69442;51.442;10.564;2024-03-08T12:38:50;30.80;;;15.88;;
80131;SDS011;69442;51.442;10.564;2024-03-08T12:41:16;28.45;;;15.35;;
80131;SDS011;69442;51.442;10.564;2024-03-08T12:43:43;23.38;;;12.32;;
80131;SDS011;69442;51.442;10.564;2024-03-08T12:46:22;28.20;;;13.60;;
80131;SDS011;69442;51.442;10.564;2024-03-08T12:48:51;26.23;;;13.32;;
80131;SDS011;69442;51.442;10.564;2024-03-08T12:51:18;24.60;;;12.77;;
80131;SDS011;69442;51.442;10.564;2024-03-08T12:53:45;31.45;;;15.18;;
80131;SDS011;69442;51.442;10.564;2024-03-08T12:56:12;31.55;;;18.38;;
80131;SDS011;69442;51.442;10.564;2024-03-08T12:58:39;32.25;;;19.30;;
80131;SDS011;69442;51.442;10.564;2024-03-08T13:01:05;30.90;;;17.08;;
80131;SDS011;69442;51.442;10.564;2024-03-08T13:03:35;30.98;;;17.00;;
80131;SDS011;69442;51.442;10.564;2024-03-08T13:06:01;28.98;;;16.02;;
80131;SDS011;69442;51.442;10.564;2024-03-08T13:08:28;32.35;;;17.85;;
80131;SDS011;69442;51.442;10.564;2024-03-08T13:10:54;28.08;;;16.70;;
80131;SDS011;69442;51.442;10.564;2024-03-08T13:13:20;34.65;;;17.58;;
80131;SDS011;69442;51.442;10.564;2024-03-08T13:15:45;33.83;;;18.42;;
80131;SDS011;69442;51.442;10.564;2024-03-08T13:18:11;29.17;;;16.02;;
80131;SDS011;69442;51.442;10.564;2024-03-08T13:20:36;29.13;;;16.30;;
80131;SDS011;69442;51.442;10.564;2024-03-08T13:23:04;22.23;;;13.15;;
80131;SDS011;69442;51.442;10.564;2024-03-08T13:25:30;29.67;;;15.52;;
80131;SDS011;69442;51.442;10.564;2024-03-08T13:27:56;34.20;;;18.17;;
80131;SDS011;69442;51.442;10.564;2024-03-08T13:30:24;29.27;;;15.57;;
80131;SDS011;69442;51.442;10.564;2024-03-08T13:32:51;30.85;;;15.90;;
80131;SDS011;69442;51.442;10.564;2024-03-08T13:35:18;32.42;;;16.73;;
80131;SDS011;69442;51.442;10.564;2024-03-08T13:37:49;30.88;;;17.48;;
80131;SDS011;69442;51.442;10.564;2024-03-08T13:40:16;26.95;;;12.55;;
80131;SDS011;69442;51.442;10.564;2024-03-08T13:42:45;32.25;;;16.95;;
80131;SDS011;69442;51.442;10.564;2024-03-08T13:45:14;33.83;;;16.15;;
80131;SDS011;69442;51.442;10.564;2024-03-08T13:47:42;37.33;;;19.42;;
80131;SDS011;69442;51.442;10.564;2024-03-08T13:50:08;37.42;;;19.40;;
80131;SDS011;69442;51.442;10.564;2024-03-08T13:52:41;40.13;;;22.48;;
80131;SDS011;69442;51.442;10.564;2024-03-08T13:55:08;37.72;;;21.13;;
80131;SDS011;69442;51.442;10.564;2024-03-08T13:57:34;34.35;;;17.88;;
80131;SDS011;69442;51.442;10.564;2024-03-08T13:59:59;34.15;;;17.90;;
80131;SDS011;69442;51.442;10.564;2024-03-08T14:02:26;41.65;;;24.85;;
80131;SDS011;69442;51.442;10.564;2024-03-08T14:04:55;37.95;;;20.80;;
80131;SDS011;69442;51.442;10.564;2024-03-08T14:07:21;37.72;;;18.23;;
80131;SDS011;69442;51.442;10.564;2024-03-08T14:09:48;33.08;;;18.92;;
80131;SDS011;69442;51.442;10.564;2024-03-08T14:12:14;35.63;;;20.15;;
80131;SDS011;69442;51.442;10.564;2024-03-08T14:14:40;38.28;;;19.45;;
80131;SDS011;69442;51.442;10.564;2024-03-08T14:17:07;39.17;;;21.20;;